sensor_id;sensor_type;location;lat;lon;timestamp;P1;durP1;ratioP1;P2;durP2;ratioP2
67053;SDS011;53960;51.826;5.850;2023-03-23T00:01:08;10.77;;;3.10;;
67053;SDS011;53960;51.826;5.850;2023-03-23T00:03:35;8.90;;;3.07;;
67053;SDS011;53960;51.826;5.850;2023-03-23T00:06:01;10.18;;;3.13;;
67053;SDS011;53960;51.826;5.850;2023-03-23T00:08:34;9.32;;;3.30;;
67053;SDS011;53960;51.826;5.850;2023-03-23T00:11:21;9.43;;;3.05;;
67053;SDS011;53960;51.826;5.850;2023-03-23T00:13:49;9.88;;;2.90;;
67053;SDS011;53960;51.826;5.850;2023-03-23T00:16:22;8.03;;;2.70;;
67053;SDS011;53960;51.826;5.850;2023-03-23T00:19:00;9.88;;;3.10;;
67053;SDS011;53960;51.826;5.850;2023-03-23T00:21:31;8.30;;;3.60;;
67053;SDS011;53960;51.826;5.850;2023-03-23T00:24:08;9.05;;;2.85;;
67053;SDS011;53960;51.826;5.850;2023-03-23T00:26:37;8.02;;;3.08;;
67053;SDS011;53960;51.826;5.850;2023-03-23T00:29:10;8.93;;;3.13;;
67053;SDS011;53960;51.826;5.850;2023-03-23T00:31:46;9.25;;;2.88;;
67053;SDS011;53960;51.826;5.850;2023-03-23T00:34:13;10.45;;;3.38;;
67053;SDS011;53960;51.826;5.850;2023-03-23T00:36:44;8.57;;;3.00;;
67053;SDS011;53960;51.826;5.850;2023-03-23T00:39:10;8.98;;;2.97;;
67053;SDS011;53960;51.826;5.850;2023-03-23T00:41:35;8.70;;;3.30;;
67053;SDS011;53960;51.826;5.850;2023-03-23T00:44:01;10.67;;;3.27;;
67053;SDS011;53960;51.826;5.850;2023-03-23T00:46:27;8.97;;;3.10;;
67053;SDS011;53960;51.826;5.850;2023-03-23T00:48:53;8.90;;;3.50;;
67053;SDS011;53960;51.826;5.850;2023-03-23T00:51:19;8.85;;;2.85;;
67053;SDS011;53960;51.826;5.850;2023-03-23T00:53:45;10.77;;;3.07;;
67053;SDS011;53960;51.826;5.850;2023-03-23T00:56:11;8.13;;;2.90;;
67053;SDS011;53960;51.826;5.850;2023-03-23T00:58:37;9.57;;;3.55;;
67053;SDS011;53960;51.826;5.850;2023-03-23T01:01:02;9.77;;;3.50;;
67053;SDS011;53960;51.826;5.850;2023-03-23T01:03:29;9.48;;;3.20;;
67053;SDS011;53960;51.826;5.850;2023-03-23T01:05:54;10.50;;;3.10;;
67053;SDS011;53960;51.826;5.850;2023-03-23T01:08:20;10.30;;;3.63;;
67053;SDS011;53960;51.826;5.850;2023-03-23T01:10:47;10.48;;;3.50;;
67053;SDS011;53960;51.826;5.850;2023-03-23T01:13:13;10.25;;;3.15;;
67053;SDS011;53960;51.826;5.850;2023-03-23T01:15:39;7.60;;;3.15;;
67053;SDS011;53960;51.826;5.850;2023-03-23T01:18:05;8.13;;;3.07;;
67053;SDS011;53960;51.826;5.850;2023-03-23T01:20:30;8.87;;;3.73;;
67053;SDS011;53960;51.826;5.850;2023-03-23T01:22:57;10.10;;;3.57;;
67053;SDS011;53960;51.826;5.850;2023-03-23T01:25:26;9.20;;;3.60;;
67053;SDS011;53960;51.826;5.850;2023-03-23T01:27:53;9.10;;;3.53;;
67053;SDS011;53960;51.826;5.850;2023-03-23T01:30:18;9.10;;;3.53;;
67053;SDS011;53960;51.826;5.850;2023-03-23T01:32:44;8.97;;;3.30;;
67053;SDS011;53960;51.826;5.850;2023-03-23T01:35:11;10.53;;;4.00;;
67053;SDS011;53960;51.826;5.850;2023-03-23T01:37:37;10.45;;;3.75;;
67053;SDS011;53960;51.826;5.850;2023-03-23T01:40:02;9.73;;;3.53;;
67053;SDS011;53960;51.826;5.850;2023-03-23T01:42:31;10.63;;;4.55;;
67053;SDS011;53960;51.826;5.850;2023-03-23T01:50:23;9.48;;;3.60;;
67053;SDS011;53960;51.826;5.850;2023-03-23T01:52:50;9.43;;;3.47;;
67053;SDS011;53960;51.826;5.850;2023-03-23T01:55:18;9.95;;;3.67;;
67053;SDS011;53960;51.826;5.850;2023-03-23T01:57:44;9.20;;;3.20;;
67053;SDS011;53960;51.826;5.850;2023-03-23T02:00:10;9.77;;;3.95;;
67053;SDS011;53960;51.826;5.850;2023-03-23T02:02:43;9.13;;;3.80;;
67053;SDS011;53960;51.826;5.850;2023-03-23T02:05:13;8.40;;;3.10;;
67053;SDS011;53960;51.826;5.850;2023-03-23T02:07:42;8.93;;;3.77;;
67053;SDS011;53960;51.826;5.850;2023-03-23T02:10:09;7.93;;;3.30;;
67053;SDS011;53960;51.826;5.850;2023-03-23T02:12:35;7.45;;;3.08;;
67053;SDS011;53960;51.826;5.850;2023-03-23T02:15:00;7.83;;;3.20;;
67053;SDS011;53960;51.826;5.850;2023-03-23T02:17:33;8.82;;;3.33;;
67053;SDS011;53960;51.826;5.850;2023-03-23T02:26:37;8.80;;;3.58;;
67053;SDS011;53960;51.826;5.850;2023-03-23T02:29:07;10.87;;;3.40;;
67053;SDS011;53960;51.826;5.850;2023-03-23T02:37:09;8.23;;;3.20;;
67053;SDS011;53960;51.826;5.850;2023-03-23T02:39:43;8.27;;;3.13;;
67053;SDS011;53960;51.826;5.850;2023-03-23T02:42:13;8.40;;;3.33;;
67053;SDS011;53960;51.826;5.850;2023-03-23T02:44:42;8.32;;;3.33;;
67053;SDS011;53960;51.826;5.850;2023-03-23T02:47:17;9.60;;;3.92;;
67053;SDS011;53960;51.826;5.850;2023-03-23T02:49:47;7.85;;;2.92;;
67053;SDS011;53960;51.826;5.850;2023-03-23T02:52:16;8.43;;;3.10;;
67053;SDS011;53960;51.826;5.850;2023-03-23T02:54:44;7.93;;;3.30;;
67053;SDS011;53960;51.826;5.850;2023-03-23T02:57:12;7.55;;;3.33;;
67053;SDS011;53960;51.826;5.850;2023-03-23T02:59:38;8.33;;;3.20;;
67053;SDS011;53960;51.826;5.850;2023-03-23T03:02:05;8.13;;;3.42;;
67053;SDS011;53960;51.826;5.850;2023-03-23T03:04:35;7.75;;;2.70;;
67053;SDS011;53960;51.826;5.850;2023-03-23T03:09:55;9.87;;;3.20;;
67053;SDS011;53960;51.826;5.850;2023-03-23T03:12:32;10.40;;;3.20;;
67053;SDS011;53960;51.826;5.850;2023-03-23T03:17:50;9.18;;;3.20;;
67053;SDS011;53960;51.826;5.850;2023-03-23T03:20:20;9.82;;;3.45;;
67053;SDS011;53960;51.826;5.850;2023-03-23T03:22:47;9.07;;;3.40;;
67053;SDS011;53960;51.826;5.850;2023-03-23T03:25:13;7.88;;;2.90;;
67053;SDS011;53960;51.826;5.850;2023-03-23T03:27:43;10.43;;;3.38;;
67053;SDS011;53960;51.826;5.850;2023-03-23T03:30:14;9.52;;;3.17;;
67053;SDS011;53960;51.826;5.850;2023-03-23T03:32:46;8.63;;;2.97;;
67053;SDS011;53960;51.826;5.850;2023-03-23T03:35:15;9.48;;;3.40;;
67053;SDS011;53960;51.826;5.850;2023-03-23T03:37:41;9.27;;;3.33;;
67053;SDS011;53960;51.826;5.850;2023-03-23T03:40:12;7.60;;;2.90;;
67053;SDS011;53960;51.826;5.850;2023-03-23T03:42:40;8.23;;;3.53;;
67053;SDS011;53960;51.826;5.850;2023-03-23T03:45:10;8.37;;;3.07;;
67053;SDS011;53960;51.826;5.850;2023-03-23T03:47:38;8.18;;;3.20;;
67053;SDS011;53960;51.826;5.850;2023-03-23T03:50:04;8.77;;;3.45;;
67053;SDS011;53960;51.826;5.850;2023-03-23T03:52:30;8.68;;;3.00;;
67053;SDS011;53960;51.826;5.850;2023-03-23T03:54:56;8.47;;;3.27;;
67053;SDS011;53960;51.826;5.850;2023-03-23T03:57:22;7.50;;;3.10;;
67053;SDS011;53960;51.826;5.850;2023-03-23T03:59:48;7.67;;;3.43;;
67053;SDS011;53960;51.826;5.850;2023-03-23T04:02:13;9.03;;;3.50;;
67053;SDS011;53960;51.826;5.850;2023-03-23T04:04:41;10.23;;;3.20;;
67053;SDS011;53960;51.826;5.850;2023-03-23T04:07:08;8.93;;;3.10;;
67053;SDS011;53960;51.826;5.850;2023-03-23T04:09:35;9.07;;;3.47;;
67053;SDS011;53960;51.826;5.850;2023-03-23T04:12:01;10.05;;;3.47;;
67053;SDS011;53960;51.826;5.850;2023-03-23T04:14:27;8.30;;;2.97;;
67053;SDS011;53960;51.826;5.850;2023-03-23T04:16:52;8.90;;;3.20;;
67053;SDS011;53960;51.826;5.850;2023-03-23T04:19:21;8.05;;;3.05;;
67053;SDS011;53960;51.826;5.850;2023-03-23T04:21:47;7.93;;;3.13;;
67053;SDS011;53960;51.826;5.850;2023-03-23T04:24:14;8.63;;;3.03;;
67053;SDS011;53960;51.826;5.850;2023-03-23T04:26:39;9.13;;;3.13;;
67053;SDS011;53960;51.826;5.850;2023-03-23T04:29:07;8.13;;;3.10;;
67053;SDS011;53960;51.826;5.850;2023-03-23T04:31:33;9.23;;;3.00;;
67053;SDS011;53960;51.826;5.850;2023-03-23T04:33:59;9.25;;;2.70;;
67053;SDS011;53960;51.826;5.850;2023-03-23T04:36:26;7.95;;;3.00;;
67053;SDS011;53960;51.826;5.850;2023-03-23T04:38:53;7.88;;;3.38;;
67053;SDS011;53960;51.826;5.850;2023-03-23T04:41:19;11.47;;;2.67;;
67053;SDS011;53960;51.826;5.850;2023-03-23T04:43:45;9.50;;;2.63;;
67053;SDS011;53960;51.826;5.850;2023-03-23T04:46:11;7.87;;;2.40;;
67053;SDS011;53960;51.826;5.850;2023-03-23T04:48:36;8.00;;;2.57;;
67053;SDS011;53960;51.826;5.850;2023-03-23T04:51:04;9.55;;;2.33;;
67053;SDS011;53960;51.826;5.850;2023-03-23T04:53:30;7.88;;;2.20;;
67053;SDS011;53960;51.826;5.850;2023-03-23T04:55:56;8.38;;;2.30;;
67053;SDS011;53960;51.826;5.850;2023-03-23T04:58:21;9.40;;;2.20;;
67053;SDS011;53960;51.826;5.850;2023-03-23T05:00:49;9.45;;;2.45;;
67053;SDS011;53960;51.826;5.850;2023-03-23T05:03:18;9.10;;;2.20;;
67053;SDS011;53960;51.826;5.850;2023-03-23T05:05:44;8.13;;;2.10;;
67053;SDS011;53960;51.826;5.850;2023-03-23T05:08:16;8.65;;;2.25;;
67053;SDS011;53960;51.826;5.850;2023-03-23T05:10:49;8.68;;;1.95;;
67053;SDS011;53960;51.826;5.850;2023-03-23T05:13:16;8.50;;;2.00;;
67053;SDS011;53960;51.826;5.850;2023-03-23T05:15:41;10.90;;;2.10;;
67053;SDS011;53960;51.826;5.850;2023-03-23T05:18:07;8.35;;;1.83;;
67053;SDS011;53960;51.826;5.850;2023-03-23T05:20:34;9.73;;;2.10;;
67053;SDS011;53960;51.826;5.850;2023-03-23T05:22:59;7.65;;;2.35;;
67053;SDS011;53960;51.826;5.850;2023-03-23T05:25:25;7.50;;;1.80;;
67053;SDS011;53960;51.826;5.850;2023-03-23T05:27:51;10.05;;;1.80;;
67053;SDS011;53960;51.826;5.850;2023-03-23T05:30:18;8.07;;;1.37;;
67053;SDS011;53960;51.826;5.850;2023-03-23T05:32:44;10.88;;;2.67;;
67053;SDS011;53960;51.826;5.850;2023-03-23T05:35:10;7.72;;;1.55;;
67053;SDS011;53960;51.826;5.850;2023-03-23T05:37:37;11.23;;;2.28;;
67053;SDS011;53960;51.826;5.850;2023-03-23T05:40:03;7.80;;;2.10;;
67053;SDS011;53960;51.826;5.850;2023-03-23T05:42:32;9.13;;;1.55;;
67053;SDS011;53960;51.826;5.850;2023-03-23T05:44:58;11.80;;;1.88;;
67053;SDS011;53960;51.826;5.850;2023-03-23T05:47:24;10.38;;;1.75;;
67053;SDS011;53960;51.826;5.850;2023-03-23T05:49:50;7.57;;;1.40;;
67053;SDS011;53960;51.826;5.850;2023-03-23T05:52:16;9.98;;;1.60;;
67053;SDS011;53960;51.826;5.850;2023-03-23T05:54:42;9.13;;;1.73;;
67053;SDS011;53960;51.826;5.850;2023-03-23T05:57:07;7.87;;;1.60;;
67053;SDS011;53960;51.826;5.850;2023-03-23T05:59:34;7.83;;;1.50;;
67053;SDS011;53960;51.826;5.850;2023-03-23T06:02:00;6.63;;;1.30;;
67053;SDS011;53960;51.826;5.850;2023-03-23T06:04:25;6.83;;;1.60;;
67053;SDS011;53960;51.826;5.850;2023-03-23T06:06:52;8.30;;;1.33;;
67053;SDS011;53960;51.826;5.850;2023-03-23T06:09:17;8.33;;;1.23;;
67053;SDS011;53960;51.826;5.850;2023-03-23T06:11:43;10.93;;;1.67;;
67053;SDS011;53960;51.826;5.850;2023-03-23T06:14:09;7.72;;;1.52;;
67053;SDS011;53960;51.826;5.850;2023-03-23T06:16:34;9.60;;;1.50;;
67053;SDS011;53960;51.826;5.850;2023-03-23T06:19:00;9.33;;;1.40;;
67053;SDS011;53960;51.826;5.850;2023-03-23T06:21:26;8.63;;;1.60;;
67053;SDS011;53960;51.826;5.850;2023-03-23T06:23:52;9.60;;;1.98;;
67053;SDS011;53960;51.826;5.850;2023-03-23T06:26:18;10.40;;;1.50;;
67053;SDS011;53960;51.826;5.850;2023-03-23T06:28:44;6.38;;;1.55;;
67053;SDS011;53960;51.826;5.850;2023-03-23T06:31:10;7.27;;;1.73;;
67053;SDS011;53960;51.826;5.850;2023-03-23T06:33:36;8.02;;;1.23;;
67053;SDS011;53960;51.826;5.850;2023-03-23T06:36:03;9.65;;;1.70;;
67053;SDS011;53960;51.826;5.850;2023-03-23T06:38:29;8.48;;;1.65;;
67053;SDS011;53960;51.826;5.850;2023-03-23T06:40:55;7.10;;;1.40;;
67053;SDS011;53960;51.826;5.850;2023-03-23T06:43:21;7.80;;;1.70;;
67053;SDS011;53960;51.826;5.850;2023-03-23T06:45:47;12.75;;;1.73;;
67053;SDS011;53960;51.826;5.850;2023-03-23T06:48:12;9.20;;;1.50;;
67053;SDS011;53960;51.826;5.850;2023-03-23T06:50:38;11.47;;;1.80;;
67053;SDS011;53960;51.826;5.850;2023-03-23T06:53:04;8.88;;;1.67;;
67053;SDS011;53960;51.826;5.850;2023-03-23T06:55:29;8.00;;;2.37;;
67053;SDS011;53960;51.826;5.850;2023-03-23T06:57:55;7.95;;;1.85;;
67053;SDS011;53960;51.826;5.850;2023-03-23T07:00:21;9.10;;;2.20;;
67053;SDS011;53960;51.826;5.850;2023-03-23T07:02:46;8.57;;;1.77;;
67053;SDS011;53960;51.826;5.850;2023-03-23T07:05:11;9.05;;;1.55;;
67053;SDS011;53960;51.826;5.850;2023-03-23T07:07:38;6.97;;;1.73;;
67053;SDS011;53960;51.826;5.850;2023-03-23T07:10:05;10.68;;;1.73;;
67053;SDS011;53960;51.826;5.850;2023-03-23T07:12:32;9.48;;;1.98;;
67053;SDS011;53960;51.826;5.850;2023-03-23T07:14:58;7.30;;;1.58;;
67053;SDS011;53960;51.826;5.850;2023-03-23T07:17:23;8.87;;;2.03;;
67053;SDS011;53960;51.826;5.850;2023-03-23T07:19:49;11.90;;;3.10;;
67053;SDS011;53960;51.826;5.850;2023-03-23T07:22:15;10.50;;;1.57;;
67053;SDS011;53960;51.826;5.850;2023-03-23T07:24:40;7.30;;;1.33;;
67053;SDS011;53960;51.826;5.850;2023-03-23T07:27:06;10.43;;;1.90;;
67053;SDS011;53960;51.826;5.850;2023-03-23T07:29:32;10.87;;;2.00;;
67053;SDS011;53960;51.826;5.850;2023-03-23T07:32:00;13.48;;;3.03;;
67053;SDS011;53960;51.826;5.850;2023-03-23T07:34:25;10.47;;;2.03;;
67053;SDS011;53960;51.826;5.850;2023-03-23T07:36:50;11.65;;;2.30;;
67053;SDS011;53960;51.826;5.850;2023-03-23T07:39:16;10.77;;;2.13;;
67053;SDS011;53960;51.826;5.850;2023-03-23T07:41:41;10.27;;;2.00;;
67053;SDS011;53960;51.826;5.850;2023-03-23T07:44:06;8.87;;;2.43;;
67053;SDS011;53960;51.826;5.850;2023-03-23T07:46:32;10.37;;;2.43;;
67053;SDS011;53960;51.826;5.850;2023-03-23T07:48:58;9.65;;;1.83;;
67053;SDS011;53960;51.826;5.850;2023-03-23T07:51:24;7.85;;;1.98;;
67053;SDS011;53960;51.826;5.850;2023-03-23T07:53:49;10.17;;;1.80;;
67053;SDS011;53960;51.826;5.850;2023-03-23T07:56:16;9.15;;;2.33;;
67053;SDS011;53960;51.826;5.850;2023-03-23T07:58:44;11.20;;;2.20;;
67053;SDS011;53960;51.826;5.850;2023-03-23T08:01:10;9.32;;;1.90;;
67053;SDS011;53960;51.826;5.850;2023-03-23T08:03:36;9.20;;;2.37;;
67053;SDS011;53960;51.826;5.850;2023-03-23T08:06:02;10.90;;;2.10;;
67053;SDS011;53960;51.826;5.850;2023-03-23T08:08:28;9.85;;;1.95;;
67053;SDS011;53960;51.826;5.850;2023-03-23T08:10:53;10.68;;;2.22;;
67053;SDS011;53960;51.826;5.850;2023-03-23T08:13:19;10.90;;;1.80;;
67053;SDS011;53960;51.826;5.850;2023-03-23T08:15:44;11.00;;;2.20;;
67053;SDS011;53960;51.826;5.850;2023-03-23T08:18:10;9.02;;;1.77;;
67053;SDS011;53960;51.826;5.850;2023-03-23T08:20:36;9.33;;;1.57;;
67053;SDS011;53960;51.826;5.850;2023-03-23T08:23:01;6.93;;;1.33;;
67053;SDS011;53960;51.826;5.850;2023-03-23T08:25:28;5.97;;;1.10;;
67053;SDS011;53960;51.826;5.850;2023-03-23T08:27:56;6.70;;;1.42;;
67053;SDS011;53960;51.826;5.850;2023-03-23T08:30:22;10.52;;;1.60;;
67053;SDS011;53960;51.826;5.850;2023-03-23T08:32:49;7.20;;;1.20;;
67053;SDS011;53960;51.826;5.850;2023-03-23T08:35:16;10.75;;;1.52;;
67053;SDS011;53960;51.826;5.850;2023-03-23T08:37:43;6.17;;;1.27;;
67053;SDS011;53960;51.826;5.850;2023-03-23T08:40:09;7.50;;;1.02;;
67053;SDS011;53960;51.826;5.850;2023-03-23T08:42:37;6.18;;;1.33;;
67053;SDS011;53960;51.826;5.850;2023-03-23T08:45:04;6.13;;;1.20;;
67053;SDS011;53960;51.826;5.850;2023-03-23T08:47:32;6.53;;;1.23;;
67053;SDS011;53960;51.826;5.850;2023-03-23T08:49:57;4.87;;;1.00;;
67053;SDS011;53960;51.826;5.850;2023-03-23T08:52:22;4.60;;;1.20;;
67053;SDS011;53960;51.826;5.850;2023-03-23T08:54:48;5.97;;;1.08;;
67053;SDS011;53960;51.826;5.850;2023-03-23T08:57:14;5.90;;;0.90;;
67053;SDS011;53960;51.826;5.850;2023-03-23T08:59:40;4.30;;;0.93;;
67053;SDS011;53960;51.826;5.850;2023-03-23T09:02:08;5.40;;;0.90;;
67053;SDS011;53960;51.826;5.850;2023-03-23T09:04:35;4.85;;;1.35;;
67053;SDS011;53960;51.826;5.850;2023-03-23T09:07:01;6.22;;;1.05;;
67053;SDS011;53960;51.826;5.850;2023-03-23T09:09:27;6.63;;;1.13;;
67053;SDS011;53960;51.826;5.850;2023-03-23T09:11:53;7.03;;;1.20;;
67053;SDS011;53960;51.826;5.850;2023-03-23T09:14:18;5.73;;;1.13;;
67053;SDS011;53960;51.826;5.850;2023-03-23T09:16:44;5.17;;;0.83;;
67053;SDS011;53960;51.826;5.850;2023-03-23T09:19:10;6.60;;;1.00;;
67053;SDS011;53960;51.826;5.850;2023-03-23T09:21:36;7.97;;;1.05;;
67053;SDS011;53960;51.826;5.850;2023-03-23T09:24:01;8.00;;;1.10;;
67053;SDS011;53960;51.826;5.850;2023-03-23T09:26:27;6.35;;;1.30;;
67053;SDS011;53960;51.826;5.850;2023-03-23T09:28:53;5.97;;;1.20;;
67053;SDS011;53960;51.826;5.850;2023-03-23T09:31:18;5.22;;;1.20;;
67053;SDS011;53960;51.826;5.850;2023-03-23T09:33:47;8.00;;;1.88;;
67053;SDS011;53960;51.826;5.850;2023-03-23T09:36:16;7.35;;;1.45;;
67053;SDS011;53960;51.826;5.850;2023-03-23T09:38:42;5.43;;;1.10;;
67053;SDS011;53960;51.826;5.850;2023-03-23T09:44:08;6.03;;;1.25;;
67053;SDS011;53960;51.826;5.850;2023-03-23T09:49:15;6.57;;;1.23;;
67053;SDS011;53960;51.826;5.850;2023-03-23T09:51:53;7.50;;;1.40;;
67053;SDS011;53960;51.826;5.850;2023-03-23T09:54:24;7.72;;;1.17;;
67053;SDS011;53960;51.826;5.850;2023-03-23T09:56:52;10.23;;;1.58;;
67053;SDS011;53960;51.826;5.850;2023-03-23T09:59:41;6.90;;;1.40;;
67053;SDS011;53960;51.826;5.850;2023-03-23T10:02:27;9.60;;;1.73;;
67053;SDS011;53960;51.826;5.850;2023-03-23T10:04:58;8.13;;;1.40;;
67053;SDS011;53960;51.826;5.850;2023-03-23T10:07:45;9.80;;;1.45;;
67053;SDS011;53960;51.826;5.850;2023-03-23T10:10:12;8.53;;;1.80;;
67053;SDS011;53960;51.826;5.850;2023-03-23T10:12:55;8.38;;;1.20;;
67053;SDS011;53960;51.826;5.850;2023-03-23T10:15:30;9.18;;;1.40;;
67053;SDS011;53960;51.826;5.850;2023-03-23T10:18:10;8.05;;;1.45;;
67053;SDS011;53960;51.826;5.850;2023-03-23T10:20:54;10.37;;;1.27;;
67053;SDS011;53960;51.826;5.850;2023-03-23T10:23:43;9.68;;;1.55;;
67053;SDS011;53960;51.826;5.850;2023-03-23T10:26:31;9.85;;;1.48;;
67053;SDS011;53960;51.826;5.850;2023-03-23T10:37:28;10.77;;;1.83;;
67053;SDS011;53960;51.826;5.850;2023-03-23T10:39:56;11.27;;;2.30;;
67053;SDS011;53960;51.826;5.850;2023-03-23T10:42:27;12.43;;;2.13;;
67053;SDS011;53960;51.826;5.850;2023-03-23T10:44:57;9.82;;;1.88;;
67053;SDS011;53960;51.826;5.850;2023-03-23T10:47:24;9.03;;;1.47;;
67053;SDS011;53960;51.826;5.850;2023-03-23T10:49:53;9.57;;;1.93;;
67053;SDS011;53960;51.826;5.850;2023-03-23T10:52:36;11.27;;;1.50;;
67053;SDS011;53960;51.826;5.850;2023-03-23T10:55:19;7.78;;;1.65;;
67053;SDS011;53960;51.826;5.850;2023-03-23T10:58:01;9.23;;;1.88;;
67053;SDS011;53960;51.826;5.850;2023-03-23T11:00:29;11.15;;;2.15;;
67053;SDS011;53960;51.826;5.850;2023-03-23T11:02:57;8.10;;;1.30;;
67053;SDS011;53960;51.826;5.850;2023-03-23T11:05:24;10.82;;;1.67;;
67053;SDS011;53960;51.826;5.850;2023-03-23T11:07:57;8.10;;;2.25;;
67053;SDS011;53960;51.826;5.850;2023-03-23T11:10:27;7.95;;;1.60;;
67053;SDS011;53960;51.826;5.850;2023-03-23T11:13:09;8.65;;;2.08;;
67053;SDS011;53960;51.826;5.850;2023-03-23T11:15:39;9.97;;;1.97;;
67053;SDS011;53960;51.826;5.850;2023-03-23T11:18:09;8.15;;;1.63;;
67053;SDS011;53960;51.826;5.850;2023-03-23T11:20:37;9.02;;;1.90;;
67053;SDS011;53960;51.826;5.850;2023-03-23T11:23:08;11.43;;;2.08;;
67053;SDS011;53960;51.826;5.850;2023-03-23T11:25:51;9.98;;;1.60;;
67053;SDS011;53960;51.826;5.850;2023-03-23T11:28:35;8.63;;;1.70;;
67053;SDS011;53960;51.826;5.850;2023-03-23T11:31:03;7.32;;;1.90;;
67053;SDS011;53960;51.826;5.850;2023-03-23T11:33:38;8.85;;;1.90;;
67053;SDS011;53960;51.826;5.850;2023-03-23T11:36:11;9.48;;;2.33;;
67053;SDS011;53960;51.826;5.850;2023-03-23T11:38:37;8.40;;;2.30;;
67053;SDS011;53960;51.826;5.850;2023-03-23T11:41:08;7.33;;;2.23;;
67053;SDS011;53960;51.826;5.850;2023-03-23T11:43:38;8.50;;;2.30;;
67053;SDS011;53960;51.826;5.850;2023-03-23T11:46:14;10.05;;;2.60;;
67053;SDS011;53960;51.826;5.850;2023-03-23T11:48:53;9.05;;;2.30;;
67053;SDS011;53960;51.826;5.850;2023-03-23T11:51:24;8.90;;;2.43;;
67053;SDS011;53960;51.826;5.850;2023-03-23T11:56:35;9.18;;;2.20;;
67053;SDS011;53960;51.826;5.850;2023-03-23T11:59:03;9.43;;;2.45;;
67053;SDS011;53960;51.826;5.850;2023-03-23T12:01:46;7.70;;;2.38;;
67053;SDS011;53960;51.826;5.850;2023-03-23T12:07:00;10.73;;;2.60;;
67053;SDS011;53960;51.826;5.850;2023-03-23T12:09:43;7.95;;;1.85;;
67053;SDS011;53960;51.826;5.850;2023-03-23T12:12:26;8.38;;;2.05;;
67053;SDS011;53960;51.826;5.850;2023-03-23T12:20:29;7.97;;;1.92;;
67053;SDS011;53960;51.826;5.850;2023-03-23T12:23:20;9.65;;;1.60;;
67053;SDS011;53960;51.826;5.850;2023-03-23T12:26:08;7.00;;;1.42;;
67053;SDS011;53960;51.826;5.850;2023-03-23T12:34:37;8.02;;;1.70;;
67053;SDS011;53960;51.826;5.850;2023-03-23T12:40:19;9.82;;;1.75;;
67053;SDS011;53960;51.826;5.850;2023-03-23T12:48:33;10.73;;;1.42;;
67053;SDS011;53960;51.826;5.850;2023-03-23T13:02:20;8.32;;;1.67;;
67053;SDS011;53960;51.826;5.850;2023-03-23T13:05:00;8.35;;;1.50;;
67053;SDS011;53960;51.826;5.850;2023-03-23T13:07:28;9.85;;;1.40;;
67053;SDS011;53960;51.826;5.850;2023-03-23T13:12:29;6.87;;;1.70;;
67053;SDS011;53960;51.826;5.850;2023-03-23T13:20:29;9.82;;;1.75;;
67053;SDS011;53960;51.826;5.850;2023-03-23T13:23:19;7.78;;;1.75;;
67053;SDS011;53960;51.826;5.850;2023-03-23T13:28:31;8.98;;;1.75;;
67053;SDS011;53960;51.826;5.850;2023-03-23T13:31:00;7.15;;;1.30;;
67053;SDS011;53960;51.826;5.850;2023-03-23T13:33:29;8.95;;;1.55;;
67053;SDS011;53960;51.826;5.850;2023-03-23T13:35:56;9.30;;;2.03;;
67053;SDS011;53960;51.826;5.850;2023-03-23T13:38:25;7.20;;;1.50;;
67053;SDS011;53960;51.826;5.850;2023-03-23T13:40:53;9.85;;;1.75;;
67053;SDS011;53960;51.826;5.850;2023-03-23T13:43:30;7.60;;;1.80;;
67053;SDS011;53960;51.826;5.850;2023-03-23T13:46:23;7.90;;;1.87;;
67053;SDS011;53960;51.826;5.850;2023-03-23T13:56:42;9.88;;;2.10;;
67053;SDS011;53960;51.826;5.850;2023-03-23T13:59:14;7.27;;;1.30;;
67053;SDS011;53960;51.826;5.850;2023-03-23T14:01:53;8.07;;;1.40;;
67053;SDS011;53960;51.826;5.850;2023-03-23T14:04:20;7.82;;;1.67;;
67053;SDS011;53960;51.826;5.850;2023-03-23T14:06:47;10.27;;;1.65;;
67053;SDS011;53960;51.826;5.850;2023-03-23T14:09:18;8.52;;;1.63;;
67053;SDS011;53960;51.826;5.850;2023-03-23T14:11:54;10.60;;;1.80;;
67053;SDS011;53960;51.826;5.850;2023-03-23T14:14:26;8.30;;;1.40;;
67053;SDS011;53960;51.826;5.850;2023-03-23T14:17:23;7.18;;;1.85;;
67053;SDS011;53960;51.826;5.850;2023-03-23T14:19:53;9.75;;;2.22;;
67053;SDS011;53960;51.826;5.850;2023-03-23T14:22:27;8.57;;;1.90;;
67053;SDS011;53960;51.826;5.850;2023-03-23T14:25:01;7.40;;;1.40;;
67053;SDS011;53960;51.826;5.850;2023-03-23T14:27:35;8.55;;;1.50;;
67053;SDS011;53960;51.826;5.850;2023-03-23T14:30:02;7.83;;;1.40;;
67053;SDS011;53960;51.826;5.850;2023-03-23T14:32:30;7.73;;;1.50;;
67053;SDS011;53960;51.826;5.850;2023-03-23T14:34:57;8.10;;;1.50;;
67053;SDS011;53960;51.826;5.850;2023-03-23T14:37:25;5.25;;;1.42;;
67053;SDS011;53960;51.826;5.850;2023-03-23T14:39:52;9.65;;;1.58;;
67053;SDS011;53960;51.826;5.850;2023-03-23T14:42:28;7.32;;;1.63;;
67053;SDS011;53960;51.826;5.850;2023-03-23T14:44:55;9.23;;;1.70;;
67053;SDS011;53960;51.826;5.850;2023-03-23T14:47:23;10.15;;;2.55;;
67053;SDS011;53960;51.826;5.850;2023-03-23T14:49:55;9.20;;;2.03;;
67053;SDS011;53960;51.826;5.850;2023-03-23T14:52:23;10.40;;;2.25;;
67053;SDS011;53960;51.826;5.850;2023-03-23T14:54:50;8.80;;;1.95;;
67053;SDS011;53960;51.826;5.850;2023-03-23T14:57:33;8.80;;;2.30;;
67053;SDS011;53960;51.826;5.850;2023-03-23T14:59:59;10.20;;;1.83;;
67053;SDS011;53960;51.826;5.850;2023-03-23T15:05:03;10.07;;;2.15;;
67053;SDS011;53960;51.826;5.850;2023-03-23T15:07:42;7.70;;;1.50;;
67053;SDS011;53960;51.826;5.850;2023-03-23T15:10:13;9.23;;;1.85;;
67053;SDS011;53960;51.826;5.850;2023-03-23T15:12:43;9.77;;;2.53;;
67053;SDS011;53960;51.826;5.850;2023-03-23T15:15:24;12.60;;;2.15;;
67053;SDS011;53960;51.826;5.850;2023-03-23T15:17:52;9.40;;;1.73;;
67053;SDS011;53960;51.826;5.850;2023-03-23T15:20:21;12.17;;;2.23;;
67053;SDS011;53960;51.826;5.850;2023-03-23T15:22:48;9.75;;;1.70;;
67053;SDS011;53960;51.826;5.850;2023-03-23T15:25:30;10.27;;;2.20;;
67053;SDS011;53960;51.826;5.850;2023-03-23T15:28:06;8.50;;;1.97;;
67053;SDS011;53960;51.826;5.850;2023-03-23T15:30:46;9.63;;;2.10;;
67053;SDS011;53960;51.826;5.850;2023-03-23T15:33:15;9.63;;;2.22;;
67053;SDS011;53960;51.826;5.850;2023-03-23T15:35:49;11.00;;;2.05;;
67053;SDS011;53960;51.826;5.850;2023-03-23T15:38:26;8.88;;;2.33;;
67053;SDS011;53960;51.826;5.850;2023-03-23T15:40:56;8.13;;;1.70;;
67053;SDS011;53960;51.826;5.850;2023-03-23T15:43:26;8.98;;;1.42;;
67053;SDS011;53960;51.826;5.850;2023-03-23T15:48:45;10.07;;;1.75;;
67053;SDS011;53960;51.826;5.850;2023-03-23T15:51:12;7.95;;;1.67;;
67053;SDS011;53960;51.826;5.850;2023-03-23T15:53:39;8.97;;;1.77;;
67053;SDS011;53960;51.826;5.850;2023-03-23T15:56:06;6.35;;;1.42;;
67053;SDS011;53960;51.826;5.850;2023-03-23T15:58:33;9.82;;;2.00;;
67053;SDS011;53960;51.826;5.850;2023-03-23T16:01:02;8.40;;;1.35;;
67053;SDS011;53960;51.826;5.850;2023-03-23T16:06:35;9.87;;;1.67;;
67053;SDS011;53960;51.826;5.850;2023-03-23T16:09:02;8.50;;;1.85;;
67053;SDS011;53960;51.826;5.850;2023-03-23T16:11:29;8.18;;;1.52;;
67053;SDS011;53960;51.826;5.850;2023-03-23T16:13:55;8.95;;;1.88;;
67053;SDS011;53960;51.826;5.850;2023-03-23T16:16:22;9.98;;;2.28;;
67053;SDS011;53960;51.826;5.850;2023-03-23T16:18:51;8.73;;;2.07;;
67053;SDS011;53960;51.826;5.850;2023-03-23T16:21:17;7.70;;;1.65;;
67053;SDS011;53960;51.826;5.850;2023-03-23T16:23:42;9.50;;;1.83;;
67053;SDS011;53960;51.826;5.850;2023-03-23T16:26:10;7.82;;;2.10;;
67053;SDS011;53960;51.826;5.850;2023-03-23T16:28:36;7.95;;;1.95;;
67053;SDS011;53960;51.826;5.850;2023-03-23T16:31:02;7.73;;;1.60;;
67053;SDS011;53960;51.826;5.850;2023-03-23T16:33:27;8.23;;;1.90;;
67053;SDS011;53960;51.826;5.850;2023-03-23T16:35:52;9.73;;;1.90;;
67053;SDS011;53960;51.826;5.850;2023-03-23T16:38:18;8.70;;;1.80;;